Stratford, Washington
Current Conditions -  °F | °C
As of 12:53 PM on Friday 19 Dec 2014 (Local Time) from KEPH Reporting Station
Overcast Overcast  
Wind Chill: 37°   Ceiling: 700
Heat Index: 41°   Visibility: 7mi
Dew Point: 38°   Wind: 6mph
Humidity: 89%   Direction: 220°SW
Pressure: 29.9"   Gusts: NA
Location:  47.43°N, 119.29°W
Report Text: KEPH 192053Z AUTO 22005KT 7SM OVC007 05/03 A2990 RMK AO2 SLP134 T00500033 53002
Loading
Personal Weather Stations






























Interactive Weather Map New forecast layout! Learn more

10-Day Weather Forecast

Advertisements
Track Severe Weather on mobile